createdAt,value
2019-02-07T00:00:26.723Z,71.60
2019-02-07T00:01:34.019Z,66.85
2019-02-07T00:02:40.059Z,71.45
2019-02-07T00:03:47.038Z,72.17
2019-02-07T00:04:53.060Z,76.45
2019-02-07T00:06:00.129Z,68.80
2019-02-07T00:07:06.590Z,71.70
2019-02-07T00:08:13.159Z,68.70
2019-02-07T00:09:20.197Z,72.62
2019-02-07T00:10:26.775Z,72.72
2019-02-07T00:11:33.799Z,73.42
2019-02-07T00:12:40.323Z,77.32
2019-02-07T00:13:46.230Z,70.08
2019-02-07T00:14:52.015Z,66.45
2019-02-07T00:15:58.407Z,66.05
2019-02-07T00:17:04.200Z,68.42
2019-02-07T00:18:11.237Z,69.70
2019-02-07T00:19:18.378Z,72.60
2019-02-07T00:20:25.618Z,72.82
2019-02-07T00:21:31.784Z,72.60
2019-02-07T00:22:39.317Z,74.27
2019-02-07T00:23:45.206Z,70.08
2019-02-07T00:24:51.567Z,64.65
2019-02-07T00:25:58.086Z,70.30
2019-02-07T00:27:04.283Z,75.78
2019-02-07T00:28:10.714Z,74.32
2019-02-07T00:29:17.624Z,73.87
2019-02-07T00:30:24.423Z,68.65
2019-02-07T00:31:31.274Z,72.03
2019-02-07T00:32:39.015Z,75.32
2019-02-07T00:33:44.982Z,73.17
2019-02-07T00:34:52.174Z,76.02
2019-02-07T00:35:58.655Z,70.22
2019-02-07T00:37:04.709Z,70.83
2019-02-07T00:38:14.985Z,70.40
2019-02-07T00:39:21.614Z,73.65
2019-02-07T00:40:28.187Z,75.97
2019-02-07T00:41:34.396Z,68.45
2019-02-07T00:42:42.172Z,67.30
2019-02-07T00:43:48.465Z,70.92
2019-02-07T00:44:55.267Z,73.70
2019-02-07T00:46:03.215Z,74.27
2019-02-07T00:47:09.754Z,70.55
2019-02-07T00:48:17.718Z,72.17
2019-02-07T00:49:24.366Z,73.80
2019-02-07T00:50:31.335Z,69.60
2019-02-07T00:51:38.304Z,70.72
2019-02-07T00:52:44.907Z,71.72
2019-02-07T00:53:51.855Z,69.35
2019-02-07T00:54:57.688Z,69.62
2019-02-07T00:56:03.939Z,68.25
2019-02-07T00:57:10.498Z,70.95
2019-02-07T00:58:16.358Z,70.22
2019-02-07T00:59:23.029Z,71.82
2019-02-07T01:00:31.830Z,70.70
2019-02-07T01:01:37.697Z,72.32
2019-02-07T01:02:43.919Z,76.02
2019-02-07T01:03:50.087Z,75.17
2019-02-07T01:04:56.025Z,71.40
2019-02-07T01:06:02.917Z,71.20
2019-02-07T01:07:10.178Z,67.00
2019-02-07T01:08:17.927Z,77.37
2019-02-07T01:09:24.559Z,73.30
2019-02-07T01:10:32.715Z,74.10
2019-02-07T01:11:38.258Z,70.87
2019-02-07T01:12:45.178Z,70.45
2019-02-07T01:13:52.154Z,68.85
2019-02-07T01:15:02.159Z,71.82
2019-02-07T01:16:06.875Z,72.65
2019-02-07T01:17:13.875Z,72.97
2019-02-07T01:18:20.070Z,70.17
2019-02-07T01:19:27.933Z,73.25
2019-02-07T01:20:35.115Z,70.90
2019-02-07T01:21:40.895Z,73.20
2019-02-07T01:22:46.783Z,75.90
2019-02-07T01:23:55.341Z,72.65
2019-02-07T01:25:01.691Z,67.85
2019-02-07T01:26:08.449Z,66.00
2019-02-07T01:27:15.538Z,70.87
2019-02-07T01:28:23.066Z,72.35
2019-02-07T01:29:29.389Z,70.95
2019-02-07T01:30:37.168Z,68.67
2019-02-07T01:31:43.811Z,68.90
2019-02-07T01:32:50.611Z,71.33
2019-02-07T01:33:56.961Z,69.00
2019-02-07T01:35:02.682Z,68.72
2019-02-07T01:36:10.029Z,74.15
2019-02-07T01:37:15.806Z,71.12
2019-02-07T01:38:22.158Z,68.70
2019-02-07T01:39:29.159Z,71.47
2019-02-07T01:40:35.070Z,69.87
2019-02-07T01:41:41.929Z,67.78
2019-02-07T01:42:48.158Z,70.90
2019-02-07T01:43:54.531Z,65.30
2019-02-07T01:45:01.173Z,70.03
2019-02-07T01:46:08.868Z,72.40
2019-02-07T01:47:14.644Z,73.45
2019-02-07T01:48:21.983Z,71.30
2019-02-07T01:49:27.913Z,74.97
2019-02-07T01:50:34.120Z,72.95
2019-02-07T01:51:40.073Z,73.22
2019-02-07T01:52:46.930Z,78.87
2019-02-07T01:53:52.850Z,78.57
2019-02-07T01:55:00.630Z,72.35
2019-02-07T01:56:08.542Z,73.60
2019-02-07T01:57:14.374Z,75.37
2019-02-07T01:58:21.564Z,79.50
2019-02-07T01:59:29.435Z,72.58
2019-02-07T02:00:35.785Z,74.20
2019-02-07T02:01:42.103Z,69.05
2019-02-07T02:02:48.389Z,71.33
2019-02-07T02:03:54.662Z,70.92
2019-02-07T02:05:01.383Z,69.47
2019-02-07T02:06:07.571Z,70.40
2019-02-07T02:07:14.052Z,70.72
2019-02-07T02:08:20.502Z,67.97
2019-02-07T02:09:26.538Z,73.07
2019-02-07T02:10:32.983Z,74.50
2019-02-07T02:11:40.095Z,70.05
2019-02-07T02:12:46.335Z,69.20
2019-02-07T02:13:53.380Z,68.95
2019-02-07T02:14:59.809Z,69.75
2019-02-07T02:16:06.079Z,70.72
2019-02-07T02:17:11.973Z,72.50
2019-02-07T02:18:19.576Z,70.92
2019-02-07T02:19:25.999Z,72.00
2019-02-07T02:20:34.089Z,71.62
2019-02-07T02:21:41.280Z,69.03
2019-02-07T02:22:48.232Z,66.82
2019-02-07T02:23:54.266Z,70.08
2019-02-07T02:25:00.402Z,74.92
2019-02-07T02:26:06.439Z,72.55
2019-02-07T02:27:13.398Z,77.27
2019-02-07T02:28:20.982Z,74.50
2019-02-07T02:29:27.681Z,68.12
2019-02-07T02:30:36.933Z,73.00
2019-02-07T02:31:42.964Z,70.55
2019-02-07T02:32:49.790Z,71.30
2019-02-07T02:33:56.848Z,64.72
2019-02-07T02:35:02.551Z,72.47
2019-02-07T02:36:08.941Z,65.28
2019-02-07T02:37:17.170Z,70.15
2019-02-07T02:38:22.965Z,74.03
2019-02-07T02:39:29.571Z,70.28
2019-02-07T02:40:36.757Z,74.42
2019-02-07T02:41:42.921Z,71.95
2019-02-07T02:42:49.821Z,70.87
2019-02-07T02:43:57.330Z,71.77
2019-02-07T02:45:03.000Z,75.52
2019-02-07T02:46:09.931Z,72.62
2019-02-07T02:47:16.318Z,75.08
2019-02-07T02:48:23.529Z,72.45
2019-02-07T02:49:30.091Z,76.77
2019-02-07T02:50:36.191Z,73.65
2019-02-07T02:51:42.072Z,73.37
2019-02-07T02:52:49.321Z,70.90
2019-02-07T02:53:57.330Z,75.65
2019-02-07T02:55:05.292Z,79.53
2019-02-07T02:56:11.941Z,72.05
2019-02-07T02:57:18.167Z,74.05
2019-02-07T02:58:24.590Z,75.00
2019-02-07T02:59:31.251Z,73.72
2019-02-07T03:00:46.021Z,68.35
2019-02-07T03:02:08.956Z,73.12
2019-02-07T03:03:23.677Z,77.70
2019-02-07T03:04:31.215Z,70.65
2019-02-07T03:05:42.884Z,73.97
2019-02-07T03:06:54.189Z,70.35
2019-02-07T03:08:10.638Z,74.40
2019-02-07T03:09:25.082Z,72.62
2019-02-07T03:10:41.893Z,73.62
2019-02-07T03:11:56.637Z,73.80
2019-02-07T03:13:07.720Z,76.15
2019-02-07T03:14:17.978Z,73.62
2019-02-07T03:15:49.330Z,75.78
2019-02-07T03:16:52.778Z,75.03
2019-02-07T03:18:03.444Z,72.65
2019-02-07T03:19:09.411Z,76.60
2019-02-07T03:20:20.705Z,75.95
2019-02-07T03:21:35.956Z,68.45
2019-02-07T03:22:44.133Z,69.12
2019-02-07T03:23:52.041Z,68.90
2019-02-07T03:24:59.882Z,73.47
2019-02-07T03:26:23.240Z,64.80
2019-02-07T03:27:29.178Z,74.10
2019-02-07T03:28:42.876Z,75.22
2019-02-07T03:29:50.378Z,75.62
2019-02-07T03:30:57.551Z,85.72
2019-02-07T03:32:21.856Z,74.40
2019-02-07T03:33:45.753Z,75.87
2019-02-07T03:34:53.650Z,75.35
2019-02-07T03:36:11.042Z,83.92
2019-02-07T03:37:21.357Z,84.85
2019-02-07T03:38:47.113Z,75.78
2019-02-07T03:40:01.208Z,78.95
2019-02-07T03:41:28.055Z,81.28
2019-02-07T03:42:45.486Z,73.62
2019-02-07T03:44:01.860Z,74.67
2019-02-07T03:45:25.314Z,80.92
2019-02-07T03:46:44.999Z,74.32
2019-02-07T03:48:10.689Z,76.02
2019-02-07T03:49:17.964Z,76.37
2019-02-07T03:50:25.249Z,71.80
2019-02-07T03:51:34.570Z,75.08
2019-02-07T03:52:44.621Z,72.22
2019-02-07T03:53:58.247Z,70.15
2019-02-07T03:55:20.973Z,71.22
2019-02-07T03:56:43.637Z,80.70
2019-02-07T03:58:07.862Z,72.22
2019-02-07T03:59:19.522Z,71.22
2019-02-07T04:00:30.493Z,77.00
2019-02-07T04:01:45.694Z,73.95
2019-02-07T04:02:53.080Z,69.42
2019-02-07T04:04:06.589Z,72.80
2019-02-07T04:05:21.459Z,76.47
2019-02-07T04:06:29.146Z,73.55
2019-02-07T04:07:46.339Z,77.45
2019-02-07T04:08:53.632Z,76.37
2019-02-07T04:10:17.170Z,77.82
2019-02-07T04:11:33.478Z,83.67
2019-02-07T04:12:54.137Z,74.03
2019-02-07T04:14:02.039Z,76.97
2019-02-07T04:15:13.944Z,72.15
2019-02-07T04:16:21.334Z,74.17
2019-02-07T04:17:45.063Z,72.60
2019-02-07T04:18:58.714Z,74.00
2019-02-07T04:20:14.580Z,74.60
2019-02-07T04:21:32.321Z,75.57
2019-02-07T04:22:43.195Z,71.85
2019-02-07T04:23:49.757Z,73.22
2019-02-07T04:25:10.619Z,73.45
2019-02-07T04:26:31.629Z,72.20
2019-02-07T04:27:45.441Z,78.37
2019-02-07T04:29:10.550Z,72.30
2019-02-07T04:30:16.898Z,78.45
2019-02-07T04:31:24.106Z,71.22
2019-02-07T04:32:34.549Z,70.22
2019-02-07T04:33:58.023Z,69.65
2019-02-07T04:35:06.299Z,71.45
2019-02-07T04:36:17.729Z,74.62
2019-02-07T04:37:26.233Z,76.45
2019-02-07T04:38:31.594Z,73.42
2019-02-07T04:39:39.537Z,73.83
2019-02-07T04:40:47.717Z,77.03
2019-02-07T04:42:11.064Z,71.07
2019-02-07T04:43:17.751Z,77.37
2019-02-07T04:44:25.426Z,74.53
2019-02-07T04:45:36.336Z,75.67
2019-02-07T04:46:54.272Z,80.17
2019-02-07T04:48:04.640Z,77.03
2019-02-07T04:49:18.583Z,78.62
2019-02-07T04:50:33.423Z,76.92
2019-02-07T04:51:45.521Z,79.72
2019-02-07T04:53:12.440Z,77.72
2019-02-07T04:54:32.532Z,75.97
2019-02-07T04:55:58.151Z,78.95
2019-02-07T04:57:18.710Z,75.30
2019-02-07T04:58:43.596Z,83.27
2019-02-07T05:00:03.060Z,80.03
2019-02-07T05:01:26.511Z,77.08
2019-02-07T05:02:50.802Z,75.17
2019-02-07T05:04:14.552Z,94.87
2019-02-07T05:05:38.119Z,90.97
2019-02-07T05:06:45.383Z,87.45
2019-02-07T05:07:52.846Z,89.22
2019-02-07T05:09:16.733Z,90.62
2019-02-07T05:10:31.596Z,92.97
2019-02-07T05:11:45.878Z,86.40
2019-02-07T05:13:03.044Z,101.53
2019-02-07T05:14:27.239Z,89.10
2019-02-07T05:15:38.163Z,93.82
2019-02-07T05:16:48.227Z,98.72
2019-02-07T05:17:56.278Z,136.32
2019-02-07T05:19:19.983Z,101.50
2019-02-07T05:20:31.063Z,91.40
2019-02-07T05:21:38.594Z,87.55
2019-02-07T05:22:47.119Z,100.33
2019-02-07T05:24:07.417Z,97.85
2019-02-07T05:25:31.786Z,84.25
2019-02-07T05:26:43.580Z,80.45
2019-02-07T05:28:08.668Z,86.40
2019-02-07T05:29:17.089Z,81.28
2019-02-07T05:30:27.387Z,88.47
2019-02-07T05:31:34.922Z,84.52
2019-02-07T05:32:44.608Z,83.05
2019-02-07T05:33:58.673Z,81.92
2019-02-07T05:35:25.700Z,77.32
2019-02-07T05:36:42.509Z,80.75
2019-02-07T05:38:07.501Z,80.35
2019-02-07T05:39:18.330Z,80.62
2019-02-07T05:40:26.608Z,85.72
2019-02-07T05:41:51.147Z,84.87
2019-02-07T05:43:13.790Z,89.83
2019-02-07T05:44:24.753Z,97.95
2019-02-07T05:45:33.241Z,100.12
2019-02-07T05:46:57.131Z,97.82
2019-02-07T05:48:22.450Z,102.75
2019-02-07T05:49:30.639Z,102.05
2019-02-07T05:50:38.182Z,101.20
2019-02-07T05:51:55.710Z,103.62
2019-02-07T05:53:01.370Z,119.75
2019-02-07T05:54:12.242Z,110.90
2019-02-07T05:55:23.116Z,113.75
2019-02-07T05:56:33.842Z,115.52
2019-02-07T05:57:51.250Z,114.20
2019-02-07T05:59:07.444Z,111.15
2019-02-07T06:00:34.782Z,112.40
2019-02-07T06:01:54.947Z,104.92
2019-02-07T06:03:03.411Z,104.70
2019-02-07T06:04:27.640Z,106.55
2019-02-07T06:05:35.233Z,97.78
2019-02-07T06:06:47.386Z,103.07
2019-02-07T06:08:10.559Z,100.12
2019-02-07T06:09:18.279Z,96.22
2019-02-07T06:10:42.213Z,97.05
2019-02-07T06:12:09.165Z,95.38
2019-02-07T06:13:34.055Z,95.87
2019-02-07T06:14:42.833Z,96.75
2019-02-07T06:15:57.121Z,96.57
2019-02-07T06:17:17.955Z,96.72
2019-02-07T06:18:45.969Z,90.62
2019-02-07T06:20:09.712Z,89.20
2019-02-07T06:21:26.515Z,90.85
2019-02-07T06:22:43.987Z,90.77
2019-02-07T06:23:52.350Z,87.37
2019-02-07T06:25:08.541Z,88.58
2019-02-07T06:26:19.770Z,87.17
2019-02-07T06:27:27.588Z,86.60
2019-02-07T06:28:35.372Z,89.65
2019-02-07T06:29:46.140Z,86.95
2019-02-07T06:30:54.155Z,88.80
2019-02-07T06:32:01.806Z,90.15
2019-02-07T06:33:25.688Z,91.67
2019-02-07T06:34:37.257Z,86.60
2019-02-07T06:35:48.116Z,81.12
2019-02-07T06:36:56.390Z,86.97
2019-02-07T06:38:04.010Z,87.70
2019-02-07T06:39:31.018Z,81.85
2019-02-07T06:40:51.935Z,90.53
2019-02-07T06:42:09.580Z,82.25
2019-02-07T06:43:23.593Z,84.07
2019-02-07T06:44:38.354Z,85.05
2019-02-07T06:45:49.094Z,86.40
2019-02-07T06:46:57.917Z,94.77
2019-02-07T06:48:08.275Z,90.07
2019-02-07T06:49:22.505Z,87.72
2019-02-07T06:50:35.827Z,89.47
2019-02-07T06:51:50.786Z,95.15
2019-02-07T06:52:58.991Z,92.62
2019-02-07T06:54:26.724Z,88.40
2019-02-07T06:55:39.877Z,85.62
2019-02-07T06:57:17.029Z,81.12
2019-02-07T06:58:26.657Z,90.83
2019-02-07T06:59:36.878Z,87.27
2019-02-07T07:01:01.757Z,84.20
2019-02-07T07:02:23.953Z,85.53
2019-02-07T07:03:39.653Z,87.00
2019-02-07T07:04:52.287Z,85.77
2019-02-07T07:06:11.756Z,82.78
2019-02-07T07:07:36.474Z,84.92
2019-02-07T07:08:56.346Z,80.45
2019-02-07T07:10:28.934Z,84.52
2019-02-07T07:11:41.006Z,82.80
2019-02-07T07:12:51.654Z,88.95
2019-02-07T07:13:58.938Z,88.58
2019-02-07T07:15:31.093Z,86.78
2019-02-07T07:16:43.195Z,84.62
2019-02-07T07:17:52.915Z,89.17
2019-02-07T07:19:03.901Z,89.10
2019-02-07T07:20:18.214Z,92.25
2019-02-07T07:21:34.744Z,92.70
2019-02-07T07:22:45.993Z,94.15
2019-02-07T07:23:58.415Z,87.08
2019-02-07T07:25:28.302Z,93.17
2019-02-07T07:26:34.954Z,94.72
2019-02-07T07:28:00.855Z,94.42
2019-02-07T07:29:09.474Z,92.53
2019-02-07T07:30:34.036Z,91.63
2019-02-07T07:32:01.494Z,94.03
2019-02-07T07:33:25.548Z,95.32
2019-02-07T07:34:35.424Z,93.07
2019-02-07T07:35:44.446Z,87.35
2019-02-07T07:36:52.315Z,94.85
2019-02-07T07:38:00.309Z,103.00
2019-02-07T07:39:25.796Z,115.30
2019-02-07T07:40:51.530Z,118.10
2019-02-07T07:42:12.435Z,105.65
2019-02-07T07:43:20.334Z,112.30
2019-02-07T07:44:43.874Z,106.83
2019-02-07T07:46:15.094Z,110.05
2019-02-07T07:48:01.230Z,110.75
2019-02-07T07:49:19.838Z,117.72
2019-02-07T07:50:37.275Z,110.17
2019-02-07T07:51:43.714Z,96.95
2019-02-07T07:52:57.556Z,100.70
2019-02-07T07:54:12.474Z,104.70
2019-02-07T07:55:25.651Z,103.45
2019-02-07T07:56:52.237Z,100.07
2019-02-07T07:58:03.394Z,112.68
2019-02-07T07:59:15.401Z,104.85
2019-02-07T08:00:34.056Z,102.90
2019-02-07T08:01:39.984Z,97.75
2019-02-07T08:02:54.834Z,98.35
2019-02-07T08:04:07.658Z,95.22
2019-02-07T08:05:22.591Z,95.22
2019-02-07T08:06:36.534Z,102.15
2019-02-07T08:08:00.931Z,99.15
2019-02-07T08:09:15.774Z,95.30
2019-02-07T08:10:27.553Z,97.30
2019-02-07T08:11:37.754Z,98.80
2019-02-07T08:12:52.969Z,103.38
2019-02-07T08:14:08.016Z,94.77
2019-02-07T08:15:29.134Z,94.50
2019-02-07T08:16:38.343Z,98.20
2019-02-07T08:17:52.689Z,101.65
2019-02-07T08:19:06.742Z,94.70
2019-02-07T08:20:30.593Z,92.50
2019-02-07T08:21:56.903Z,92.17
2019-02-07T08:23:04.147Z,92.82
2019-02-07T08:24:27.354Z,92.80
2019-02-07T08:25:42.534Z,90.53
2019-02-07T08:26:50.475Z,89.77
2019-02-07T08:27:59.717Z,88.67
2019-02-07T08:29:21.531Z,92.40
2019-02-07T08:30:36.420Z,83.05
2019-02-07T08:31:46.955Z,87.47
2019-02-07T08:32:59.996Z,87.97
2019-02-07T08:34:26.454Z,91.72
2019-02-07T08:35:33.925Z,90.47
2019-02-07T08:36:50.019Z,92.45
2019-02-07T08:37:58.278Z,94.75
2019-02-07T08:39:11.135Z,91.45
2019-02-07T08:40:28.860Z,92.00
2019-02-07T08:41:52.855Z,93.35
2019-02-07T08:42:58.475Z,86.78
2019-02-07T08:44:03.962Z,87.05
2019-02-07T08:45:13.373Z,83.95
2019-02-07T08:46:29.544Z,90.28
2019-02-07T08:47:58.571Z,85.47
2019-02-07T08:49:07.449Z,83.80
2019-02-07T08:50:25.674Z,90.53
2019-02-07T08:51:36.141Z,89.03
2019-02-07T08:52:54.016Z,87.37
2019-02-07T08:54:00.802Z,89.55
2019-02-07T08:55:08.502Z,84.03
2019-02-07T08:56:32.556Z,90.10
2019-02-07T08:57:40.699Z,90.32
2019-02-07T08:58:46.514Z,92.90
2019-02-07T09:00:10.174Z,89.37
2019-02-07T09:01:38.055Z,93.10
2019-02-07T09:03:03.333Z,83.82
2019-02-07T09:04:31.847Z,87.25
2019-02-07T09:05:53.450Z,87.12
2019-02-07T09:07:17.553Z,84.00
2019-02-07T09:08:28.738Z,83.85
2019-02-07T09:09:41.434Z,85.12
2019-02-07T09:11:03.245Z,88.25
2019-02-07T09:12:16.204Z,82.50
2019-02-07T09:13:39.754Z,89.52
2019-02-07T09:14:53.168Z,86.37
2019-02-07T09:16:15.473Z,98.37
2019-02-07T09:17:20.916Z,92.35
2019-02-07T09:18:38.330Z,89.07
2019-02-07T09:19:51.896Z,91.32
2019-02-07T09:21:14.284Z,90.17
2019-02-07T09:22:23.810Z,87.47
2019-02-07T09:23:35.926Z,88.42
2019-02-07T09:24:59.694Z,84.15
2019-02-07T09:26:16.247Z,86.85
2019-02-07T09:27:24.741Z,90.10
2019-02-07T09:28:40.734Z,90.50
2019-02-07T09:29:51.415Z,86.67
2019-02-07T09:31:04.767Z,92.70
2019-02-07T09:32:24.493Z,87.78
2019-02-07T09:33:44.895Z,84.32
2019-02-07T09:34:58.015Z,92.15
2019-02-07T09:36:24.155Z,91.45
2019-02-07T09:37:30.738Z,98.15
2019-02-07T09:38:41.034Z,93.25
2019-02-07T09:40:04.599Z,92.08
2019-02-07T09:41:21.946Z,89.60
2019-02-07T09:42:42.712Z,90.00
2019-02-07T09:43:53.874Z,93.27
2019-02-07T09:45:05.162Z,96.75
2019-02-07T09:46:25.914Z,93.58
2019-02-07T09:47:35.728Z,90.90
2019-02-07T09:48:48.694Z,87.37
2019-02-07T09:50:08.234Z,92.90
2019-02-07T09:51:23.416Z,90.12
2019-02-07T09:52:36.835Z,90.47
2019-02-07T09:54:02.436Z,88.10
2019-02-07T09:55:13.307Z,95.87
2019-02-07T09:56:22.114Z,93.97
2019-02-07T09:57:30.918Z,87.53
2019-02-07T09:58:43.489Z,89.40
2019-02-07T10:00:06.695Z,83.07
2019-02-07T10:01:20.187Z,86.80
2019-02-07T10:02:38.107Z,85.65
2019-02-07T10:03:52.535Z,85.50
2019-02-07T10:05:09.364Z,86.67
2019-02-07T10:06:17.202Z,83.78
2019-02-07T10:07:42.852Z,81.35
2019-02-07T10:08:53.414Z,85.57
2019-02-07T10:10:13.914Z,85.03
2019-02-07T10:11:36.254Z,88.07
2019-02-07T10:12:57.188Z,90.32
2019-02-07T10:14:13.814Z,86.90
2019-02-07T10:15:39.238Z,90.10
2019-02-07T10:17:01.534Z,88.07
2019-02-07T10:18:32.787Z,93.33
2019-02-07T10:19:36.268Z,96.60
2019-02-07T10:20:47.612Z,95.03
2019-02-07T10:22:10.305Z,95.50
2019-02-07T10:23:23.610Z,92.50
2019-02-07T10:24:47.694Z,95.05
2019-02-07T10:26:11.657Z,97.37
2019-02-07T10:27:22.194Z,93.52
2019-02-07T10:28:45.755Z,98.10
2019-02-07T10:29:54.040Z,92.53
2019-02-07T10:31:17.703Z,98.45
2019-02-07T10:32:27.749Z,94.17
2019-02-07T10:33:33.307Z,94.45
2019-02-07T10:34:44.445Z,92.75
2019-02-07T10:36:01.074Z,90.28
2019-02-07T10:37:09.894Z,91.60
2019-02-07T10:38:17.888Z,93.67
2019-02-07T10:39:35.902Z,97.27
2019-02-07T10:40:52.673Z,93.67
2019-02-07T10:42:16.974Z,95.55
2019-02-07T10:43:40.094Z,92.92
2019-02-07T10:44:49.014Z,92.08
2019-02-07T10:46:08.293Z,91.90
2019-02-07T10:47:33.494Z,99.17
2019-02-07T10:48:44.652Z,92.33
2019-02-07T10:49:59.445Z,98.47
2019-02-07T10:51:06.562Z,100.30
2019-02-07T10:52:20.105Z,96.65
2019-02-07T10:53:33.730Z,96.63
2019-02-07T10:54:53.675Z,97.50
2019-02-07T10:56:17.862Z,99.72
2019-02-07T10:57:31.633Z,98.07
2019-02-07T10:58:37.054Z,107.55
2019-02-07T10:59:46.101Z,103.40
2019-02-07T11:01:00.515Z,102.95
2019-02-07T11:02:15.375Z,105.97
2019-02-07T11:03:31.333Z,102.27
2019-02-07T11:04:59.884Z,100.07
2019-02-07T11:06:27.259Z,97.05
2019-02-07T11:07:36.234Z,97.40
2019-02-07T11:08:52.290Z,102.72
2019-02-07T11:10:09.273Z,101.10
2019-02-07T11:11:18.814Z,102.27
2019-02-07T11:12:36.415Z,108.05
2019-02-07T11:13:47.791Z,102.87
2019-02-07T11:15:01.415Z,103.22
2019-02-07T11:16:18.715Z,102.05
2019-02-07T11:17:31.427Z,105.05
2019-02-07T11:18:55.723Z,105.25
2019-02-07T11:20:08.237Z,109.42
2019-02-07T11:21:16.794Z,101.07
2019-02-07T11:22:24.242Z,102.85
2019-02-07T11:23:34.327Z,104.70
2019-02-07T11:24:44.154Z,105.12
2019-02-07T11:26:03.634Z,96.70
2019-02-07T11:27:11.673Z,102.50
2019-02-07T11:28:19.465Z,100.92
2019-02-07T11:29:28.634Z,108.00
2019-02-07T11:30:39.902Z,110.25
2019-02-07T11:32:03.575Z,107.63
2019-02-07T11:33:17.363Z,112.57
2019-02-07T11:34:30.842Z,115.12
2019-02-07T11:35:57.324Z,112.47
2019-02-07T11:37:11.467Z,112.95
2019-02-07T11:38:20.173Z,117.33
2019-02-07T11:39:29.781Z,114.45
2019-02-07T11:40:41.290Z,114.50
2019-02-07T11:41:55.434Z,113.95
2019-02-07T11:43:06.717Z,115.22
2019-02-07T11:44:15.206Z,117.87
2019-02-07T11:45:22.694Z,116.73
2019-02-07T11:46:48.778Z,121.75
2019-02-07T11:47:59.215Z,125.75
2019-02-07T11:49:19.014Z,120.28
2019-02-07T11:50:32.854Z,125.38
2019-02-07T11:51:43.814Z,122.95
2019-02-07T11:53:09.547Z,124.55
2019-02-07T11:54:24.536Z,128.35
2019-02-07T11:55:32.334Z,123.75
2019-02-07T11:56:55.963Z,130.35
2019-02-07T11:58:10.315Z,124.30
2019-02-07T11:59:35.914Z,125.33
2019-02-07T12:01:02.934Z,124.40
2019-02-07T12:02:19.927Z,126.90
2019-02-07T12:03:33.873Z,132.63
2019-02-07T12:04:42.559Z,130.20
2019-02-07T12:05:51.114Z,127.12
2019-02-07T12:07:01.227Z,126.85
2019-02-07T12:08:26.237Z,134.30
2019-02-07T12:09:34.754Z,129.40
2019-02-07T12:10:49.174Z,129.93
2019-02-07T12:12:05.862Z,130.82
2019-02-07T12:13:17.274Z,128.50
2019-02-07T12:14:36.415Z,132.80
2019-02-07T12:15:46.673Z,126.02
2019-02-07T12:16:57.334Z,126.82
2019-02-07T12:18:21.277Z,117.45
2019-02-07T12:19:34.574Z,122.33
2019-02-07T12:20:55.293Z,123.53
2019-02-07T12:22:18.956Z,125.35
2019-02-07T12:23:30.442Z,123.87
2019-02-07T12:24:47.515Z,126.47
2019-02-07T12:25:56.034Z,126.20
2019-02-07T12:27:14.277Z,121.85
2019-02-07T12:28:31.995Z,124.18
2019-02-07T12:29:46.767Z,124.75
2019-02-07T12:31:11.194Z,127.53
2019-02-07T12:32:19.666Z,126.97
2019-02-07T12:33:43.913Z,124.42
2019-02-07T12:34:51.874Z,124.40
2019-02-07T12:36:00.713Z,127.15
2019-02-07T12:37:17.746Z,124.42
2019-02-07T12:38:40.494Z,125.07
2019-02-07T12:40:04.210Z,130.45
2019-02-07T12:41:15.887Z,129.20
2019-02-07T12:42:28.894Z,130.57
2019-02-07T12:43:39.084Z,134.52
2019-02-07T12:45:01.268Z,132.12
2019-02-07T12:46:09.832Z,133.30
2019-02-07T12:47:19.996Z,126.47
2019-02-07T12:48:36.417Z,131.43
2019-02-07T12:50:00.031Z,131.22
2019-02-07T12:51:20.675Z,126.92
2019-02-07T12:52:44.235Z,138.80
2019-02-07T12:54:02.540Z,130.12
2019-02-07T12:55:11.995Z,131.35
2019-02-07T12:56:22.855Z,127.27
2019-02-07T12:57:48.775Z,122.62
2019-02-07T12:58:57.376Z,134.30
2019-02-07T13:00:24.053Z,138.45
2019-02-07T13:01:48.715Z,129.95
2019-02-07T13:03:01.676Z,128.95
2019-02-07T13:04:08.649Z,135.90
2019-02-07T13:05:35.615Z,138.22
2019-02-07T13:06:57.110Z,136.07
2019-02-07T13:08:03.876Z,139.18
2019-02-07T13:09:10.736Z,140.80
2019-02-07T13:10:27.417Z,134.95
2019-02-07T13:11:37.723Z,137.25
2019-02-07T13:13:00.851Z,144.93
2019-02-07T13:14:08.306Z,141.18
2019-02-07T13:15:16.665Z,146.77
2019-02-07T13:16:40.195Z,139.75
2019-02-07T13:17:52.077Z,142.13
2019-02-07T13:19:12.261Z,141.55
2019-02-07T13:20:33.172Z,141.65
2019-02-07T13:21:40.435Z,142.68
2019-02-07T13:22:45.970Z,145.85
2019-02-07T13:23:59.601Z,148.38
2019-02-07T13:25:13.122Z,141.47
2019-02-07T13:26:19.451Z,145.35
2019-02-07T13:27:45.179Z,143.43
2019-02-07T13:28:58.819Z,144.02
2019-02-07T13:30:30.936Z,143.82
2019-02-07T13:31:40.794Z,142.22
2019-02-07T13:33:04.021Z,146.70
2019-02-07T13:34:18.109Z,140.55
2019-02-07T13:35:42.075Z,146.25
2019-02-07T13:36:48.108Z,141.85
2019-02-07T13:38:11.992Z,146.72
2019-02-07T13:39:33.395Z,143.72
2019-02-07T13:40:54.029Z,138.95
2019-02-07T13:42:08.515Z,142.22
2019-02-07T13:43:22.652Z,142.35
2019-02-07T13:44:29.928Z,141.30
2019-02-07T13:45:44.236Z,144.07
2019-02-07T13:47:03.716Z,150.25
2019-02-07T13:48:14.995Z,146.25
2019-02-07T13:49:20.376Z,143.60
2019-02-07T13:50:27.696Z,134.67
2019-02-07T13:51:33.457Z,141.73
2019-02-07T13:52:47.068Z,142.15
2019-02-07T13:53:59.546Z,139.70
2019-02-07T13:55:24.775Z,144.02
2019-02-07T13:56:33.117Z,138.15
2019-02-07T13:57:40.777Z,137.82
2019-02-07T13:59:04.954Z,135.37
2019-02-07T14:00:20.257Z,140.32
2019-02-07T14:01:31.469Z,134.70
2019-02-07T14:02:55.436Z,136.47
2019-02-07T14:04:05.998Z,135.55
2019-02-07T14:05:13.870Z,135.45
2019-02-07T14:06:27.588Z,142.62
2019-02-07T14:07:51.652Z,145.28
2019-02-07T14:08:59.176Z,134.95
2019-02-07T14:10:19.989Z,133.85
2019-02-07T14:11:27.715Z,133.63
2019-02-07T14:12:35.150Z,134.95
2019-02-07T14:13:58.948Z,133.37
2019-02-07T14:15:10.155Z,132.52
2019-02-07T14:16:33.608Z,133.37
2019-02-07T14:17:41.909Z,136.80
2019-02-07T14:18:47.428Z,136.18
2019-02-07T14:20:04.136Z,139.12
2019-02-07T14:21:14.356Z,139.05
2019-02-07T14:22:33.768Z,143.02
2019-02-07T14:23:51.668Z,137.90
2019-02-07T14:25:02.136Z,133.25
2019-02-07T14:26:13.136Z,140.62
2019-02-07T14:27:25.628Z,139.00
2019-02-07T14:28:39.849Z,134.35
2019-02-07T14:29:47.356Z,130.70
2019-02-07T14:31:01.536Z,127.12
2019-02-07T14:32:09.436Z,123.42
2019-02-07T14:33:26.944Z,132.25
2019-02-07T14:34:51.835Z,125.53
2019-02-07T14:36:08.430Z,133.57
2019-02-07T14:37:18.736Z,129.30
2019-02-07T14:38:29.990Z,125.92
2019-02-07T14:39:37.228Z,132.07
2019-02-07T14:40:50.335Z,131.37
2019-02-07T14:42:03.063Z,130.32
2019-02-07T14:43:12.046Z,134.03
2019-02-07T14:44:35.937Z,136.15
2019-02-07T14:45:46.195Z,139.75
2019-02-07T14:46:53.129Z,136.12
2019-02-07T14:47:58.818Z,135.65
2019-02-07T14:49:06.276Z,134.03
2019-02-07T14:50:14.818Z,135.55
2019-02-07T14:51:20.603Z,142.90
2019-02-07T14:52:27.472Z,138.22
2019-02-07T14:53:34.215Z,133.03
2019-02-07T14:54:45.475Z,133.67
2019-02-07T14:55:53.003Z,132.50
2019-02-07T14:56:59.155Z,133.75
2019-02-07T14:58:07.232Z,136.43
2019-02-07T14:59:13.508Z,132.78
2019-02-07T15:00:24.822Z,134.87
2019-02-07T15:01:33.269Z,135.90
2019-02-07T15:02:41.778Z,144.87
2019-02-07T15:03:50.484Z,140.28
2019-02-07T15:04:59.969Z,140.70
2019-02-07T15:06:11.864Z,133.95
2019-02-07T15:07:20.210Z,133.27
2019-02-07T15:08:29.155Z,133.20
2019-02-07T15:09:38.633Z,129.45
2019-02-07T15:10:47.723Z,123.50
2019-02-07T15:11:54.510Z,128.93
2019-02-07T15:13:06.222Z,124.85
2019-02-07T15:14:12.190Z,125.78
2019-02-07T15:15:26.870Z,122.62
2019-02-07T15:16:34.364Z,127.07
2019-02-07T15:17:39.874Z,128.95
2019-02-07T15:18:46.213Z,127.82
2019-02-07T15:19:52.026Z,130.25
2019-02-07T15:20:57.851Z,127.15
2019-02-07T15:22:03.607Z,131.47
2019-02-07T15:23:09.911Z,140.92
2019-02-07T15:24:16.643Z,156.47
2019-02-07T15:25:22.996Z,160.18
2019-02-07T15:26:29.010Z,153.45
2019-02-07T15:27:35.245Z,156.78
2019-02-07T15:28:42.050Z,154.40
2019-02-07T15:29:47.545Z,160.05
2019-02-07T15:30:54.042Z,147.13
2019-02-07T15:31:59.874Z,156.18